sensor_id;sensor_type;location;lat;lon;timestamp;P1;durP1;ratioP1;P2;durP2;ratioP2
70757;SDS011;59316;52.964;7.102;2023-05-10T00:05:15;23.27;;;12.40;;
70757;SDS011;59316;52.964;7.102;2023-05-10T00:10:37;25.02;;;11.85;;
70757;SDS011;59316;52.964;7.102;2023-05-10T00:15:58;22.15;;;11.80;;
70757;SDS011;59316;52.964;7.102;2023-05-10T00:21:20;21.58;;;11.07;;
70757;SDS011;59316;52.964;7.102;2023-05-10T00:26:42;19.15;;;10.70;;
70757;SDS011;59316;52.964;7.102;2023-05-10T00:32:04;22.50;;;12.20;;
70757;SDS011;59316;52.964;7.102;2023-05-10T00:37:26;19.00;;;10.90;;
70757;SDS011;59316;52.964;7.102;2023-05-10T00:42:47;22.23;;;10.80;;
70757;SDS011;59316;52.964;7.102;2023-05-10T00:48:09;13.77;;;7.72;;
70757;SDS011;59316;52.964;7.102;2023-05-10T00:53:31;13.05;;;7.25;;
70757;SDS011;59316;52.964;7.102;2023-05-10T00:58:53;13.15;;;6.90;;
70757;SDS011;59316;52.964;7.102;2023-05-10T01:04:14;12.82;;;7.18;;
70757;SDS011;59316;52.964;7.102;2023-05-10T01:09:36;14.93;;;8.18;;
70757;SDS011;59316;52.964;7.102;2023-05-10T01:14:58;13.95;;;9.23;;
70757;SDS011;59316;52.964;7.102;2023-05-10T01:20:21;15.93;;;9.95;;
70757;SDS011;59316;52.964;7.102;2023-05-10T01:37:25;17.48;;;9.13;;
70757;SDS011;59316;52.964;7.102;2023-05-10T01:43:21;17.45;;;9.25;;
70757;SDS011;59316;52.964;7.102;2023-05-10T01:48:51;16.58;;;9.27;;
70757;SDS011;59316;52.964;7.102;2023-05-10T01:54:16;17.88;;;10.13;;
70757;SDS011;59316;52.964;7.102;2023-05-10T01:59:41;19.00;;;9.80;;
70757;SDS011;59316;52.964;7.102;2023-05-10T02:05:06;20.85;;;10.73;;
70757;SDS011;59316;52.964;7.102;2023-05-10T02:10:28;19.52;;;10.20;;
70757;SDS011;59316;52.964;7.102;2023-05-10T02:15:51;15.38;;;9.20;;
70757;SDS011;59316;52.964;7.102;2023-05-10T02:21:14;18.15;;;9.52;;
70757;SDS011;59316;52.964;7.102;2023-05-10T02:26:38;18.30;;;9.67;;
70757;SDS011;59316;52.964;7.102;2023-05-10T02:32:01;18.70;;;9.57;;
70757;SDS011;59316;52.964;7.102;2023-05-10T02:37:23;18.33;;;9.75;;
70757;SDS011;59316;52.964;7.102;2023-05-10T02:42:47;20.67;;;9.52;;
70757;SDS011;59316;52.964;7.102;2023-05-10T02:48:11;17.17;;;9.18;;
70757;SDS011;59316;52.964;7.102;2023-05-10T02:53:36;19.42;;;9.95;;
70757;SDS011;59316;52.964;7.102;2023-05-10T02:59:02;18.40;;;9.07;;
70757;SDS011;59316;52.964;7.102;2023-05-10T03:04:23;15.45;;;8.48;;
70757;SDS011;59316;52.964;7.102;2023-05-10T03:20:59;15.40;;;8.27;;
70757;SDS011;59316;52.964;7.102;2023-05-10T03:26:26;20.08;;;8.40;;
70757;SDS011;59316;52.964;7.102;2023-05-10T03:32:03;16.85;;;8.25;;
70757;SDS011;59316;52.964;7.102;2023-05-10T03:37:25;18.02;;;8.95;;
70757;SDS011;59316;52.964;7.102;2023-05-10T03:42:46;17.27;;;9.23;;
70757;SDS011;59316;52.964;7.102;2023-05-10T03:48:08;21.98;;;10.02;;
70757;SDS011;59316;52.964;7.102;2023-05-10T03:53:30;19.65;;;8.88;;
70757;SDS011;59316;52.964;7.102;2023-05-10T03:58:52;16.95;;;8.90;;
70757;SDS011;59316;52.964;7.102;2023-05-10T04:04:13;19.77;;;8.77;;
70757;SDS011;59316;52.964;7.102;2023-05-10T04:09:35;20.00;;;9.57;;
70757;SDS011;59316;52.964;7.102;2023-05-10T04:14:56;15.98;;;9.02;;
70757;SDS011;59316;52.964;7.102;2023-05-10T04:20:18;16.63;;;8.38;;
70757;SDS011;59316;52.964;7.102;2023-05-10T04:25:40;19.45;;;8.65;;
70757;SDS011;59316;52.964;7.102;2023-05-10T04:31:05;17.65;;;9.18;;
70757;SDS011;59316;52.964;7.102;2023-05-10T04:36:28;18.52;;;9.98;;
70757;SDS011;59316;52.964;7.102;2023-05-10T04:41:50;18.73;;;9.65;;
70757;SDS011;59316;52.964;7.102;2023-05-10T04:47:11;16.80;;;8.52;;
70757;SDS011;59316;52.964;7.102;2023-05-10T04:52:33;16.02;;;8.25;;
70757;SDS011;59316;52.964;7.102;2023-05-10T04:57:54;15.10;;;8.85;;
70757;SDS011;59316;52.964;7.102;2023-05-10T05:03:16;15.80;;;8.00;;
70757;SDS011;59316;52.964;7.102;2023-05-10T05:08:38;14.23;;;8.07;;
70757;SDS011;59316;52.964;7.102;2023-05-10T05:13:59;12.48;;;7.70;;
70757;SDS011;59316;52.964;7.102;2023-05-10T05:19:21;14.65;;;7.53;;
70757;SDS011;59316;52.964;7.102;2023-05-10T05:24:42;12.10;;;6.60;;
70757;SDS011;59316;52.964;7.102;2023-05-10T05:30:04;9.63;;;6.32;;
70757;SDS011;59316;52.964;7.102;2023-05-10T05:35:27;10.43;;;6.53;;
70757;SDS011;59316;52.964;7.102;2023-05-10T05:40:48;12.40;;;5.93;;
70757;SDS011;59316;52.964;7.102;2023-05-10T05:46:10;12.57;;;6.47;;
70757;SDS011;59316;52.964;7.102;2023-05-10T05:51:31;9.73;;;6.10;;
70757;SDS011;59316;52.964;7.102;2023-05-10T05:56:54;9.05;;;5.47;;
70757;SDS011;59316;52.964;7.102;2023-05-10T06:02:18;9.98;;;5.50;;
70757;SDS011;59316;52.964;7.102;2023-05-10T06:07:40;11.52;;;5.95;;
70757;SDS011;59316;52.964;7.102;2023-05-10T06:13:02;10.45;;;6.38;;
70757;SDS011;59316;52.964;7.102;2023-05-10T06:18:23;9.48;;;6.13;;
70757;SDS011;59316;52.964;7.102;2023-05-10T06:23:45;11.23;;;6.25;;
70757;SDS011;59316;52.964;7.102;2023-05-10T06:29:06;12.07;;;6.18;;
70757;SDS011;59316;52.964;7.102;2023-05-10T06:34:28;10.18;;;5.70;;
70757;SDS011;59316;52.964;7.102;2023-05-10T06:39:49;10.75;;;6.40;;
70757;SDS011;59316;52.964;7.102;2023-05-10T06:45:11;11.02;;;6.25;;
70757;SDS011;59316;52.964;7.102;2023-05-10T06:50:32;12.20;;;6.18;;
70757;SDS011;59316;52.964;7.102;2023-05-10T06:55:54;10.57;;;6.00;;
70757;SDS011;59316;52.964;7.102;2023-05-10T07:01:16;11.43;;;5.82;;
70757;SDS011;59316;52.964;7.102;2023-05-10T07:06:37;11.07;;;5.28;;
70757;SDS011;59316;52.964;7.102;2023-05-10T07:11:59;11.00;;;5.22;;
70757;SDS011;59316;52.964;7.102;2023-05-10T07:17:20;9.10;;;5.47;;
70757;SDS011;59316;52.964;7.102;2023-05-10T07:22:42;8.57;;;4.97;;
70757;SDS011;59316;52.964;7.102;2023-05-10T07:28:03;7.35;;;4.13;;
70757;SDS011;59316;52.964;7.102;2023-05-10T07:33:25;7.43;;;4.07;;
70757;SDS011;59316;52.964;7.102;2023-05-10T07:38:46;5.45;;;3.85;;
70757;SDS011;59316;52.964;7.102;2023-05-10T07:44:08;4.70;;;3.65;;
70757;SDS011;59316;52.964;7.102;2023-05-10T07:49:30;3.65;;;2.00;;
70757;SDS011;59316;52.964;7.102;2023-05-10T07:54:51;1.13;;;0.90;;
70757;SDS011;59316;52.964;7.102;2023-05-10T08:00:13;0.50;;;0.50;;
70757;SDS011;59316;52.964;7.102;2023-05-10T08:05:39;1.38;;;0.45;;
70757;SDS011;59316;52.964;7.102;2023-05-10T08:11:00;0.45;;;0.30;;
70757;SDS011;59316;52.964;7.102;2023-05-10T08:16:22;0.57;;;0.30;;
70757;SDS011;59316;52.964;7.102;2023-05-10T08:21:44;0.17;;;0.17;;
70757;SDS011;59316;52.964;7.102;2023-05-10T08:27:06;1.20;;;0.38;;
70757;SDS011;59316;52.964;7.102;2023-05-10T08:32:28;0.20;;;0.20;;
70757;SDS011;59316;52.964;7.102;2023-05-10T08:37:50;1.05;;;0.40;;
70757;SDS011;59316;52.964;7.102;2023-05-10T08:43:12;0.40;;;0.30;;
70757;SDS011;59316;52.964;7.102;2023-05-10T08:48:34;0.50;;;0.50;;
70757;SDS011;59316;52.964;7.102;2023-05-10T08:53:55;0.80;;;0.60;;
70757;SDS011;59316;52.964;7.102;2023-05-10T08:59:18;1.25;;;0.65;;
70757;SDS011;59316;52.964;7.102;2023-05-10T09:04:39;1.15;;;1.05;;
70757;SDS011;59316;52.964;7.102;2023-05-10T09:10:01;1.45;;;1.20;;
70757;SDS011;59316;52.964;7.102;2023-05-10T09:15:23;2.03;;;1.40;;
70757;SDS011;59316;52.964;7.102;2023-05-10T09:20:44;2.42;;;2.10;;
70757;SDS011;59316;52.964;7.102;2023-05-10T09:26:06;3.53;;;2.83;;
70757;SDS011;59316;52.964;7.102;2023-05-10T09:31:42;3.33;;;2.63;;
70757;SDS011;59316;52.964;7.102;2023-05-10T09:37:13;4.60;;;2.90;;
70757;SDS011;59316;52.964;7.102;2023-05-10T09:42:35;3.30;;;2.90;;
70757;SDS011;59316;52.964;7.102;2023-05-10T09:47:57;6.90;;;3.50;;
70757;SDS011;59316;52.964;7.102;2023-05-10T09:53:19;4.43;;;3.33;;
70757;SDS011;59316;52.964;7.102;2023-05-10T09:58:41;5.43;;;3.10;;
70757;SDS011;59316;52.964;7.102;2023-05-10T10:04:04;4.72;;;2.80;;
70757;SDS011;59316;52.964;7.102;2023-05-10T10:14:49;3.92;;;2.40;;
70757;SDS011;59316;52.964;7.102;2023-05-10T10:20:11;2.53;;;2.20;;
70757;SDS011;59316;52.964;7.102;2023-05-10T10:25:33;5.15;;;2.42;;
70757;SDS011;59316;52.964;7.102;2023-05-10T10:30:54;3.47;;;2.50;;
70757;SDS011;59316;52.964;7.102;2023-05-10T10:36:32;3.38;;;2.90;;
70757;SDS011;59316;52.964;7.102;2023-05-10T10:48:22;2.53;;;1.98;;
70757;SDS011;59316;52.964;7.102;2023-05-10T10:53:44;3.63;;;2.10;;
70757;SDS011;59316;52.964;7.102;2023-05-10T10:59:08;4.00;;;2.08;;
70757;SDS011;59316;52.964;7.102;2023-05-10T11:04:31;2.20;;;1.55;;
70757;SDS011;59316;52.964;7.102;2023-05-10T11:10:04;1.93;;;1.63;;
70757;SDS011;59316;52.964;7.102;2023-05-10T11:15:30;2.80;;;2.00;;
70757;SDS011;59316;52.964;7.102;2023-05-10T11:21:01;3.47;;;2.13;;
70757;SDS011;59316;52.964;7.102;2023-05-10T11:26:23;3.58;;;2.10;;
70757;SDS011;59316;52.964;7.102;2023-05-10T11:31:51;4.00;;;2.83;;
70757;SDS011;59316;52.964;7.102;2023-05-10T11:37:12;4.03;;;3.08;;
70757;SDS011;59316;52.964;7.102;2023-05-10T11:42:34;5.70;;;4.00;;
70757;SDS011;59316;52.964;7.102;2023-05-10T11:47:58;5.50;;;3.60;;
70757;SDS011;59316;52.964;7.102;2023-05-10T11:53:20;7.35;;;4.40;;
70757;SDS011;59316;52.964;7.102;2023-05-10T11:58:42;8.07;;;4.75;;
70757;SDS011;59316;52.964;7.102;2023-05-10T12:04:04;7.07;;;4.43;;
70757;SDS011;59316;52.964;7.102;2023-05-10T12:09:25;10.02;;;4.30;;
70757;SDS011;59316;52.964;7.102;2023-05-10T12:15:02;8.05;;;4.57;;
70757;SDS011;59316;52.964;7.102;2023-05-10T12:20:27;8.17;;;3.93;;
70757;SDS011;59316;52.964;7.102;2023-05-10T12:25:49;7.47;;;4.33;;
70757;SDS011;59316;52.964;7.102;2023-05-10T12:31:10;5.97;;;3.95;;
70757;SDS011;59316;52.964;7.102;2023-05-10T12:36:31;5.65;;;3.80;;
70757;SDS011;59316;52.964;7.102;2023-05-10T12:41:53;5.97;;;4.43;;
70757;SDS011;59316;52.964;7.102;2023-05-10T12:47:15;5.20;;;3.83;;
70757;SDS011;59316;52.964;7.102;2023-05-10T12:52:36;6.07;;;3.67;;
70757;SDS011;59316;52.964;7.102;2023-05-10T12:57:58;4.88;;;3.45;;
70757;SDS011;59316;52.964;7.102;2023-05-10T13:03:19;5.65;;;3.50;;
70757;SDS011;59316;52.964;7.102;2023-05-10T13:08:41;4.53;;;3.10;;
70757;SDS011;59316;52.964;7.102;2023-05-10T13:14:02;6.63;;;3.72;;
70757;SDS011;59316;52.964;7.102;2023-05-10T13:19:24;6.20;;;4.07;;
70757;SDS011;59316;52.964;7.102;2023-05-10T13:24:46;6.35;;;3.97;;
70757;SDS011;59316;52.964;7.102;2023-05-10T13:30:08;5.00;;;3.75;;
70757;SDS011;59316;52.964;7.102;2023-05-10T13:35:30;7.65;;;4.32;;
70757;SDS011;59316;52.964;7.102;2023-05-10T13:40:52;5.35;;;3.58;;
70757;SDS011;59316;52.964;7.102;2023-05-10T13:46:13;8.43;;;4.20;;
70757;SDS011;59316;52.964;7.102;2023-05-10T13:51:35;7.15;;;3.90;;
70757;SDS011;59316;52.964;7.102;2023-05-10T13:56:56;6.20;;;4.18;;
70757;SDS011;59316;52.964;7.102;2023-05-10T14:02:17;7.72;;;4.15;;
70757;SDS011;59316;52.964;7.102;2023-05-10T14:07:39;4.50;;;3.30;;
70757;SDS011;59316;52.964;7.102;2023-05-10T14:13:01;4.93;;;3.42;;
70757;SDS011;59316;52.964;7.102;2023-05-10T14:18:22;6.85;;;3.70;;
70757;SDS011;59316;52.964;7.102;2023-05-10T14:23:44;6.53;;;3.53;;
70757;SDS011;59316;52.964;7.102;2023-05-10T14:29:05;7.32;;;3.90;;
70757;SDS011;59316;52.964;7.102;2023-05-10T14:34:29;4.67;;;3.27;;
70757;SDS011;59316;52.964;7.102;2023-05-10T14:39:50;8.63;;;4.40;;
70757;SDS011;59316;52.964;7.102;2023-05-10T14:45:12;6.68;;;4.55;;
70757;SDS011;59316;52.964;7.102;2023-05-10T14:50:33;7.35;;;4.25;;
70757;SDS011;59316;52.964;7.102;2023-05-10T14:55:56;8.20;;;4.18;;
70757;SDS011;59316;52.964;7.102;2023-05-10T15:01:18;9.55;;;4.57;;
70757;SDS011;59316;52.964;7.102;2023-05-10T15:06:39;8.82;;;4.55;;
70757;SDS011;59316;52.964;7.102;2023-05-10T15:12:01;7.00;;;4.20;;
70757;SDS011;59316;52.964;7.102;2023-05-10T15:17:23;8.80;;;4.35;;
70757;SDS011;59316;52.964;7.102;2023-05-10T15:22:44;8.57;;;4.55;;
70757;SDS011;59316;52.964;7.102;2023-05-10T15:28:06;8.10;;;4.25;;
70757;SDS011;59316;52.964;7.102;2023-05-10T15:33:27;7.55;;;4.43;;
70757;SDS011;59316;52.964;7.102;2023-05-10T15:38:49;7.60;;;4.95;;
70757;SDS011;59316;52.964;7.102;2023-05-10T15:44:11;6.40;;;4.35;;
70757;SDS011;59316;52.964;7.102;2023-05-10T15:49:32;8.02;;;4.53;;
70757;SDS011;59316;52.964;7.102;2023-05-10T15:54:54;6.53;;;4.53;;
70757;SDS011;59316;52.964;7.102;2023-05-10T16:00:16;8.55;;;4.20;;
70757;SDS011;59316;52.964;7.102;2023-05-10T16:05:37;8.00;;;4.97;;
70757;SDS011;59316;52.964;7.102;2023-05-10T16:10:59;10.52;;;4.68;;
70757;SDS011;59316;52.964;7.102;2023-05-10T16:16:21;8.82;;;4.32;;
70757;SDS011;59316;52.964;7.102;2023-05-10T16:21:42;8.52;;;5.18;;
70757;SDS011;59316;52.964;7.102;2023-05-10T16:27:04;7.70;;;4.85;;
70757;SDS011;59316;52.964;7.102;2023-05-10T16:32:25;9.45;;;5.50;;
70757;SDS011;59316;52.964;7.102;2023-05-10T16:37:47;7.57;;;4.68;;
70757;SDS011;59316;52.964;7.102;2023-05-10T16:43:12;8.63;;;4.57;;
70757;SDS011;59316;52.964;7.102;2023-05-10T16:48:33;8.07;;;4.43;;
70757;SDS011;59316;52.964;7.102;2023-05-10T16:53:55;6.38;;;4.10;;
70757;SDS011;59316;52.964;7.102;2023-05-10T16:59:16;8.00;;;4.80;;
70757;SDS011;59316;52.964;7.102;2023-05-10T17:04:38;8.32;;;4.50;;
70757;SDS011;59316;52.964;7.102;2023-05-10T17:09:59;10.23;;;4.72;;
70757;SDS011;59316;52.964;7.102;2023-05-10T17:15:21;7.45;;;4.22;;
70757;SDS011;59316;52.964;7.102;2023-05-10T17:20:43;8.55;;;4.55;;
70757;SDS011;59316;52.964;7.102;2023-05-10T17:26:05;7.45;;;4.75;;
70757;SDS011;59316;52.964;7.102;2023-05-10T17:31:27;9.85;;;5.18;;
70757;SDS011;59316;52.964;7.102;2023-05-10T17:36:49;7.80;;;5.00;;
70757;SDS011;59316;52.964;7.102;2023-05-10T17:42:11;9.13;;;5.03;;
70757;SDS011;59316;52.964;7.102;2023-05-10T17:47:32;10.27;;;5.50;;
70757;SDS011;59316;52.964;7.102;2023-05-10T17:52:54;8.13;;;5.20;;
70757;SDS011;59316;52.964;7.102;2023-05-10T17:58:15;7.82;;;5.15;;
70757;SDS011;59316;52.964;7.102;2023-05-10T18:03:37;9.77;;;5.82;;
70757;SDS011;59316;52.964;7.102;2023-05-10T18:08:59;8.40;;;4.80;;
70757;SDS011;59316;52.964;7.102;2023-05-10T18:14:20;8.98;;;5.68;;
70757;SDS011;59316;52.964;7.102;2023-05-10T18:19:55;8.30;;;5.05;;
70757;SDS011;59316;52.964;7.102;2023-05-10T18:25:17;8.40;;;4.90;;
70757;SDS011;59316;52.964;7.102;2023-05-10T18:30:39;12.02;;;6.40;;
70757;SDS011;59316;52.964;7.102;2023-05-10T18:36:01;13.60;;;7.88;;
70757;SDS011;59316;52.964;7.102;2023-05-10T18:41:22;13.40;;;7.28;;
70757;SDS011;59316;52.964;7.102;2023-05-10T18:46:44;15.43;;;8.43;;
70757;SDS011;59316;52.964;7.102;2023-05-10T18:52:06;16.27;;;8.65;;
70757;SDS011;59316;52.964;7.102;2023-05-10T18:57:28;15.50;;;9.00;;
70757;SDS011;59316;52.964;7.102;2023-05-10T19:02:49;19.80;;;9.98;;
70757;SDS011;59316;52.964;7.102;2023-05-10T19:08:11;18.90;;;10.57;;
70757;SDS011;59316;52.964;7.102;2023-05-10T19:13:32;18.05;;;9.05;;
70757;SDS011;59316;52.964;7.102;2023-05-10T19:18:54;16.50;;;9.15;;
70757;SDS011;59316;52.964;7.102;2023-05-10T19:24:16;19.25;;;10.48;;
70757;SDS011;59316;52.964;7.102;2023-05-10T19:29:37;21.08;;;10.77;;
70757;SDS011;59316;52.964;7.102;2023-05-10T19:34:59;19.10;;;10.15;;
70757;SDS011;59316;52.964;7.102;2023-05-10T19:40:20;20.77;;;9.88;;
70757;SDS011;59316;52.964;7.102;2023-05-10T19:45:42;20.38;;;10.07;;
70757;SDS011;59316;52.964;7.102;2023-05-10T19:51:04;19.17;;;10.07;;
70757;SDS011;59316;52.964;7.102;2023-05-10T19:56:29;19.25;;;11.02;;
70757;SDS011;59316;52.964;7.102;2023-05-10T20:01:50;19.60;;;10.82;;
70757;SDS011;59316;52.964;7.102;2023-05-10T20:07:12;19.00;;;11.60;;
70757;SDS011;59316;52.964;7.102;2023-05-10T20:12:33;19.75;;;10.63;;
70757;SDS011;59316;52.964;7.102;2023-05-10T20:17:55;15.88;;;10.55;;
70757;SDS011;59316;52.964;7.102;2023-05-10T20:23:16;21.92;;;11.32;;
70757;SDS011;59316;52.964;7.102;2023-05-10T20:28:38;19.88;;;11.07;;
70757;SDS011;59316;52.964;7.102;2023-05-10T20:34:00;20.15;;;11.15;;
70757;SDS011;59316;52.964;7.102;2023-05-10T20:39:21;23.08;;;12.93;;
70757;SDS011;59316;52.964;7.102;2023-05-10T20:44:43;19.95;;;11.88;;
70757;SDS011;59316;52.964;7.102;2023-05-10T20:50:04;19.13;;;12.48;;
70757;SDS011;59316;52.964;7.102;2023-05-10T20:55:26;19.40;;;11.40;;
70757;SDS011;59316;52.964;7.102;2023-05-10T21:00:48;18.17;;;11.73;;
70757;SDS011;59316;52.964;7.102;2023-05-10T21:06:10;19.50;;;11.35;;
70757;SDS011;59316;52.964;7.102;2023-05-10T21:11:34;17.98;;;11.25;;
70757;SDS011;59316;52.964;7.102;2023-05-10T21:22:17;24.77;;;14.05;;
70757;SDS011;59316;52.964;7.102;2023-05-10T21:27:38;23.73;;;13.38;;
70757;SDS011;59316;52.964;7.102;2023-05-10T21:33:00;26.75;;;14.30;;
70757;SDS011;59316;52.964;7.102;2023-05-10T21:38:21;26.95;;;14.73;;
70757;SDS011;59316;52.964;7.102;2023-05-10T21:43:43;27.92;;;14.40;;
70757;SDS011;59316;52.964;7.102;2023-05-10T21:49:05;32.95;;;15.55;;
70757;SDS011;59316;52.964;7.102;2023-05-10T21:54:26;34.47;;;15.88;;
70757;SDS011;59316;52.964;7.102;2023-05-10T21:59:48;35.65;;;15.65;;
70757;SDS011;59316;52.964;7.102;2023-05-10T22:05:10;36.38;;;16.65;;
70757;SDS011;59316;52.964;7.102;2023-05-10T22:10:32;36.88;;;16.27;;
70757;SDS011;59316;52.964;7.102;2023-05-10T22:15:53;38.03;;;16.67;;
70757;SDS011;59316;52.964;7.102;2023-05-10T22:21:15;35.10;;;16.98;;
70757;SDS011;59316;52.964;7.102;2023-05-10T22:26:36;39.50;;;18.13;;
70757;SDS011;59316;52.964;7.102;2023-05-10T22:31:58;35.28;;;16.77;;
70757;SDS011;59316;52.964;7.102;2023-05-10T22:37:19;34.92;;;15.50;;
70757;SDS011;59316;52.964;7.102;2023-05-10T22:42:41;39.83;;;17.50;;
70757;SDS011;59316;52.964;7.102;2023-05-10T22:48:03;45.25;;;17.98;;
70757;SDS011;59316;52.964;7.102;2023-05-10T22:53:24;38.03;;;17.17;;
70757;SDS011;59316;52.964;7.102;2023-05-10T22:58:46;35.15;;;17.60;;
70757;SDS011;59316;52.964;7.102;2023-05-10T23:04:08;36.80;;;17.40;;
70757;SDS011;59316;52.964;7.102;2023-05-10T23:09:30;37.78;;;16.58;;
70757;SDS011;59316;52.964;7.102;2023-05-10T23:14:51;33.30;;;15.60;;
70757;SDS011;59316;52.964;7.102;2023-05-10T23:20:13;33.47;;;16.73;;
70757;SDS011;59316;52.964;7.102;2023-05-10T23:25:35;32.08;;;15.98;;
70757;SDS011;59316;52.964;7.102;2023-05-10T23:30:57;35.45;;;15.32;;
70757;SDS011;59316;52.964;7.102;2023-05-10T23:36:18;33.13;;;14.75;;
70757;SDS011;59316;52.964;7.102;2023-05-10T23:41:40;34.15;;;14.82;;
70757;SDS011;59316;52.964;7.102;2023-05-10T23:47:02;31.70;;;14.35;;
70757;SDS011;59316;52.964;7.102;2023-05-10T23:52:23;33.67;;;15.10;;
70757;SDS011;59316;52.964;7.102;2023-05-10T23:57:46;37.67;;;15.82;;
